sensor_id;sensor_type;location;lat;lon;timestamp;temperature;humidity
23669;DHT22;12011;47.422;15.018;2023-02-01T00:01:23;0.60;98.20
23669;DHT22;12011;47.422;15.018;2023-02-01T00:03:55;0.90;99.90
23669;DHT22;12011;47.422;15.018;2023-02-01T00:06:25;1.00;99.90
23669;DHT22;12011;47.422;15.018;2023-02-01T00:08:55;1.00;99.90
23669;DHT22;12011;47.422;15.018;2023-02-01T00:11:25;1.50;99.90
23669;DHT22;12011;47.422;15.018;2023-02-01T00:14:02;1.50;98.60
23669;DHT22;12011;47.422;15.018;2023-02-01T00:16:36;1.40;98.60
23669;DHT22;12011;47.422;15.018;2023-02-01T00:19:11;1.70;99.30
23669;DHT22;12011;47.422;15.018;2023-02-01T00:21:46;1.70;98.40
23669;DHT22;12011;47.422;15.018;2023-02-01T00:24:16;1.60;99.30
23669;DHT22;12011;47.422;15.018;2023-02-01T00:26:49;2.20;97.10
23669;DHT22;12011;47.422;15.018;2023-02-01T00:29:24;2.20;96.30
23669;DHT22;12011;47.422;15.018;2023-02-01T00:32:02;2.30;96.60
23669;DHT22;12011;47.422;15.018;2023-02-01T00:34:34;2.30;96.40
23669;DHT22;12011;47.422;15.018;2023-02-01T00:37:12;2.30;96.40
23669;DHT22;12011;47.422;15.018;2023-02-01T00:39:45;2.10;96.50
23669;DHT22;12011;47.422;15.018;2023-02-01T00:42:15;1.90;97.10
23669;DHT22;12011;47.422;15.018;2023-02-01T00:44:52;2.00;97.40
23669;DHT22;12011;47.422;15.018;2023-02-01T00:47:26;2.00;96.50
23669;DHT22;12011;47.422;15.018;2023-02-01T00:49:57;2.20;95.60
23669;DHT22;12011;47.422;15.018;2023-02-01T00:52:39;2.30;94.80
23669;DHT22;12011;47.422;15.018;2023-02-01T00:55:13;2.20;94.30
23669;DHT22;12011;47.422;15.018;2023-02-01T00:57:44;2.20;94.50
23669;DHT22;12011;47.422;15.018;2023-02-01T01:00:22;2.10;92.90
23669;DHT22;12011;47.422;15.018;2023-02-01T01:02:58;2.10;93.70
23669;DHT22;12011;47.422;15.018;2023-02-01T01:05:44;2.40;92.30
23669;DHT22;12011;47.422;15.018;2023-02-01T01:08:17;2.30;92.30
23669;DHT22;12011;47.422;15.018;2023-02-01T01:10:53;2.40;92.30
23669;DHT22;12011;47.422;15.018;2023-02-01T01:13:32;2.30;91.70
23669;DHT22;12011;47.422;15.018;2023-02-01T01:16:10;2.30;91.50
23669;DHT22;12011;47.422;15.018;2023-02-01T01:18:48;2.40;89.90
23669;DHT22;12011;47.422;15.018;2023-02-01T01:21:23;2.30;90.80
23669;DHT22;12011;47.422;15.018;2023-02-01T01:23:53;2.40;90.30
23669;DHT22;12011;47.422;15.018;2023-02-01T01:26:29;2.40;86.20
23669;DHT22;12011;47.422;15.018;2023-02-01T01:29:21;2.50;86.60
23669;DHT22;12011;47.422;15.018;2023-02-01T01:31:57;2.30;87.50
23669;DHT22;12011;47.422;15.018;2023-02-01T01:34:39;2.40;88.00
23669;DHT22;12011;47.422;15.018;2023-02-01T01:37:09;2.40;88.80
23669;DHT22;12011;47.422;15.018;2023-02-01T01:39:42;2.60;85.80
23669;DHT22;12011;47.422;15.018;2023-02-01T01:42:12;2.80;85.70
23669;DHT22;12011;47.422;15.018;2023-02-01T01:44:59;2.00;84.60
23669;DHT22;12011;47.422;15.018;2023-02-01T01:47:44;2.90;85.70
23669;DHT22;12011;47.422;15.018;2023-02-01T01:50:26;2.90;87.40
23669;DHT22;12011;47.422;15.018;2023-02-01T01:53:02;2.80;91.30
23669;DHT22;12011;47.422;15.018;2023-02-01T01:55:43;2.70;93.00
23669;DHT22;12011;47.422;15.018;2023-02-01T01:58:20;2.50;92.60
23669;DHT22;12011;47.422;15.018;2023-02-01T02:00:57;2.40;93.60
23669;DHT22;12011;47.422;15.018;2023-02-01T02:03:37;2.40;93.10
23669;DHT22;12011;47.422;15.018;2023-02-01T02:06:16;2.50;92.70
23669;DHT22;12011;47.422;15.018;2023-02-01T02:08:54;2.40;93.80
23669;DHT22;12011;47.422;15.018;2023-02-01T02:11:27;2.60;94.20
23669;DHT22;12011;47.422;15.018;2023-02-01T02:14:08;2.60;94.50
23669;DHT22;12011;47.422;15.018;2023-02-01T02:17:19;2.50;93.20
23669;DHT22;12011;47.422;15.018;2023-02-01T02:20:39;2.60;91.40
23669;DHT22;12011;47.422;15.018;2023-02-01T02:24:01;2.80;90.30
23669;DHT22;12011;47.422;15.018;2023-02-01T02:27:11;2.90;90.20
23669;DHT22;12011;47.422;15.018;2023-02-01T02:30:30;3.20;90.30
23669;DHT22;12011;47.422;15.018;2023-02-01T02:33:28;3.30;81.60
23669;DHT22;12011;47.422;15.018;2023-02-01T02:36:24;3.30;81.30
23669;DHT22;12011;47.422;15.018;2023-02-01T02:39:19;3.10;84.60
23669;DHT22;12011;47.422;15.018;2023-02-01T02:42:05;3.00;85.10
23669;DHT22;12011;47.422;15.018;2023-02-01T02:45:00;3.00;85.70
23669;DHT22;12011;47.422;15.018;2023-02-01T02:47:54;2.90;86.20
23669;DHT22;12011;47.422;15.018;2023-02-01T02:50:36;3.00;86.60
23669;DHT22;12011;47.422;15.018;2023-02-01T02:53:27;3.20;85.30
23669;DHT22;12011;47.422;15.018;2023-02-01T02:56:18;3.10;85.80
23669;DHT22;12011;47.422;15.018;2023-02-01T02:59:13;3.20;
23669;DHT22;12011;47.422;15.018;2023-02-01T03:02:15;3.00;87.70
23669;DHT22;12011;47.422;15.018;2023-02-01T03:05:00;2.90;91.00
23669;DHT22;12011;47.422;15.018;2023-02-01T03:07:56;2.80;90.20
23669;DHT22;12011;47.422;15.018;2023-02-01T03:10:42;2.70;92.40
23669;DHT22;12011;47.422;15.018;2023-02-01T03:13:27;2.70;92.70
23669;DHT22;12011;47.422;15.018;2023-02-01T03:16:09;2.70;91.40
23669;DHT22;12011;47.422;15.018;2023-02-01T03:18:51;2.60;92.40
23669;DHT22;12011;47.422;15.018;2023-02-01T03:21:28;2.50;94.10
23669;DHT22;12011;47.422;15.018;2023-02-01T03:24:14;2.60;93.20
23669;DHT22;12011;47.422;15.018;2023-02-01T03:26:53;2.70;93.50
23669;DHT22;12011;47.422;15.018;2023-02-01T03:29:37;2.60;95.00
23669;DHT22;12011;47.422;15.018;2023-02-01T03:32:11;2.40;95.40
23669;DHT22;12011;47.422;15.018;2023-02-01T03:34:51;2.30;97.20
23669;DHT22;12011;47.422;15.018;2023-02-01T03:37:29;2.30;97.90
23669;DHT22;12011;47.422;15.018;2023-02-01T03:40:08;2.40;95.40
23669;DHT22;12011;47.422;15.018;2023-02-01T03:42:48;2.30;99.90
23669;DHT22;12011;47.422;15.018;2023-02-01T03:45:26;2.20;99.90
23669;DHT22;12011;47.422;15.018;2023-02-01T03:48:04;2.30;99.90
23669;DHT22;12011;47.422;15.018;2023-02-01T03:50:43;2.30;99.90
23669;DHT22;12011;47.422;15.018;2023-02-01T03:53:25;2.30;99.90
23669;DHT22;12011;47.422;15.018;2023-02-01T03:55:59;2.40;98.20
23669;DHT22;12011;47.422;15.018;2023-02-01T03:58:35;2.40;98.60
23669;DHT22;12011;47.422;15.018;2023-02-01T04:01:07;2.50;97.80
23669;DHT22;12011;47.422;15.018;2023-02-01T04:03:41;2.50;96.40
23669;DHT22;12011;47.422;15.018;2023-02-01T04:06:13;2.90;97.30
23669;DHT22;12011;47.422;15.018;2023-02-01T04:08:43;2.50;96.90
23669;DHT22;12011;47.422;15.018;2023-02-01T04:11:24;2.40;96.50
23669;DHT22;12011;47.422;15.018;2023-02-01T04:14:03;2.20;96.80
23669;DHT22;12011;47.422;15.018;2023-02-01T04:16:36;2.20;97.00
23669;DHT22;12011;47.422;15.018;2023-02-01T04:19:08;2.20;95.20
23669;DHT22;12011;47.422;15.018;2023-02-01T04:21:45;2.40;92.60
23669;DHT22;12011;47.422;15.018;2023-02-01T04:24:17;2.60;87.40
23669;DHT22;12011;47.422;15.018;2023-02-01T04:26:59;2.60;87.80
23669;DHT22;12011;47.422;15.018;2023-02-01T04:29:33;2.80;86.40
23669;DHT22;12011;47.422;15.018;2023-02-01T04:32:06;3.00;84.20
23669;DHT22;12011;47.422;15.018;2023-02-01T04:34:36;3.10;83.70
23669;DHT22;12011;47.422;15.018;2023-02-01T04:37:06;3.20;82.10
23669;DHT22;12011;47.422;15.018;2023-02-01T04:39:37;3.20;83.50
23669;DHT22;12011;47.422;15.018;2023-02-01T04:42:09;3.20;86.10
23669;DHT22;12011;47.422;15.018;2023-02-01T04:44:40;3.10;88.20
23669;DHT22;12011;47.422;15.018;2023-02-01T04:47:13;2.80;87.90
23669;DHT22;12011;47.422;15.018;2023-02-01T04:49:46;2.70;91.10
23669;DHT22;12011;47.422;15.018;2023-02-01T04:52:16;2.80;90.60
23669;DHT22;12011;47.422;15.018;2023-02-01T04:54:46;2.60;90.50
23669;DHT22;12011;47.422;15.018;2023-02-01T04:57:24;2.60;91.40
23669;DHT22;12011;47.422;15.018;2023-02-01T04:59:55;2.50;89.80
23669;DHT22;12011;47.422;15.018;2023-02-01T05:02:31;2.30;89.80
23669;DHT22;12011;47.422;15.018;2023-02-01T05:05:02;2.30;90.10
23669;DHT22;12011;47.422;15.018;2023-02-01T05:07:41;2.30;90.10
23669;DHT22;12011;47.422;15.018;2023-02-01T05:10:11;2.30;90.70
23669;DHT22;12011;47.422;15.018;2023-02-01T05:12:47;2.40;90.90
23669;DHT22;12011;47.422;15.018;2023-02-01T05:15:37;2.20;91.20
23669;DHT22;12011;47.422;15.018;2023-02-01T05:18:14;2.50;91.80
23669;DHT22;12011;47.422;15.018;2023-02-01T05:20:58;2.50;91.10
23669;DHT22;12011;47.422;15.018;2023-02-01T05:23:30;2.60;92.10
23669;DHT22;12011;47.422;15.018;2023-02-01T05:26:24;1.60;92.90
23669;DHT22;12011;47.422;15.018;2023-02-01T05:29:09;2.30;94.20
23669;DHT22;12011;47.422;15.018;2023-02-01T05:31:48;2.30;94.50
23669;DHT22;12011;47.422;15.018;2023-02-01T05:34:42;2.10;94.20
23669;DHT22;12011;47.422;15.018;2023-02-01T05:37:15;2.20;96.30
23669;DHT22;12011;47.422;15.018;2023-02-01T05:40:00;2.00;97.70
23669;DHT22;12011;47.422;15.018;2023-02-01T05:42:32;2.00;97.20
23669;DHT22;12011;47.422;15.018;2023-02-01T05:45:09;2.40;95.20
23669;DHT22;12011;47.422;15.018;2023-02-01T05:47:44;2.40;95.30
23669;DHT22;12011;47.422;15.018;2023-02-01T05:50:15;2.40;94.80
23669;DHT22;12011;47.422;15.018;2023-02-01T05:52:54;2.30;94.60
23669;DHT22;12011;47.422;15.018;2023-02-01T05:55:24;2.10;93.60
23669;DHT22;12011;47.422;15.018;2023-02-01T05:57:53;2.20;94.40
23669;DHT22;12011;47.422;15.018;2023-02-01T06:00:26;2.20;94.40
23669;DHT22;12011;47.422;15.018;2023-02-01T06:02:55;2.20;95.10
23669;DHT22;12011;47.422;15.018;2023-02-01T06:05:25;2.20;94.00
23669;DHT22;12011;47.422;15.018;2023-02-01T06:07:54;1.70;94.80
23669;DHT22;12011;47.422;15.018;2023-02-01T06:10:24;1.70;96.30
23669;DHT22;12011;47.422;15.018;2023-02-01T06:12:54;1.70;97.00
23669;DHT22;12011;47.422;15.018;2023-02-01T06:15:26;1.60;98.20
23669;DHT22;12011;47.422;15.018;2023-02-01T06:17:55;2.00;97.60
23669;DHT22;12011;47.422;15.018;2023-02-01T06:20:25;1.50;97.60
23669;DHT22;12011;47.422;15.018;2023-02-01T06:22:54;1.50;97.90
23669;DHT22;12011;47.422;15.018;2023-02-01T06:25:24;1.50;97.20
23669;DHT22;12011;47.422;15.018;2023-02-01T06:27:53;1.40;98.10
23669;DHT22;12011;47.422;15.018;2023-02-01T06:30:25;1.30;98.30
23669;DHT22;12011;47.422;15.018;2023-02-01T06:32:56;1.50;97.80
23669;DHT22;12011;47.422;15.018;2023-02-01T06:35:26;1.50;97.30
23669;DHT22;12011;47.422;15.018;2023-02-01T06:37:55;1.80;97.00
23669;DHT22;12011;47.422;15.018;2023-02-01T06:40:25;1.40;98.00
23669;DHT22;12011;47.422;15.018;2023-02-01T06:42:54;1.50;97.60
23669;DHT22;12011;47.422;15.018;2023-02-01T06:45:27;1.40;97.10
23669;DHT22;12011;47.422;15.018;2023-02-01T06:47:56;1.60;95.40
23669;DHT22;12011;47.422;15.018;2023-02-01T06:50:27;1.40;97.50
23669;DHT22;12011;47.422;15.018;2023-02-01T06:52:57;1.60;97.60
23669;DHT22;12011;47.422;15.018;2023-02-01T06:55:26;2.10;94.50
23669;DHT22;12011;47.422;15.018;2023-02-01T06:57:56;2.20;94.10
23669;DHT22;12011;47.422;15.018;2023-02-01T07:00:29;2.50;93.00
23669;DHT22;12011;47.422;15.018;2023-02-01T07:02:59;2.50;92.60
23669;DHT22;12011;47.422;15.018;2023-02-01T07:05:29;2.60;92.10
23669;DHT22;12011;47.422;15.018;2023-02-01T07:07:58;3.10;90.20
23669;DHT22;12011;47.422;15.018;2023-02-01T07:10:27;3.40;89.20
23669;DHT22;12011;47.422;15.018;2023-02-01T07:12:57;3.80;84.70
23669;DHT22;12011;47.422;15.018;2023-02-01T07:15:29;4.00;83.80
23669;DHT22;12011;47.422;15.018;2023-02-01T07:17:59;4.20;79.30
23669;DHT22;12011;47.422;15.018;2023-02-01T07:20:28;4.40;77.90
23669;DHT22;12011;47.422;15.018;2023-02-01T07:22:58;4.60;77.60
23669;DHT22;12011;47.422;15.018;2023-02-01T07:25:27;4.70;75.40
23669;DHT22;12011;47.422;15.018;2023-02-01T07:27:57;5.00;73.20
23669;DHT22;12011;47.422;15.018;2023-02-01T07:30:29;5.20;73.50
23669;DHT22;12011;47.422;15.018;2023-02-01T07:32:59;5.40;72.60
23669;DHT22;12011;47.422;15.018;2023-02-01T07:35:28;6.00;72.30
23669;DHT22;12011;47.422;15.018;2023-02-01T07:37:58;8.00;61.40
23669;DHT22;12011;47.422;15.018;2023-02-01T07:40:27;8.40;55.50
23669;DHT22;12011;47.422;15.018;2023-02-01T07:42:57;8.90;53.00
23669;DHT22;12011;47.422;15.018;2023-02-01T07:45:29;8.80;52.60
23669;DHT22;12011;47.422;15.018;2023-02-01T07:47:59;8.50;52.00
23669;DHT22;12011;47.422;15.018;2023-02-01T07:50:29;8.80;51.10
23669;DHT22;12011;47.422;15.018;2023-02-01T07:52:59;8.50;50.70
23669;DHT22;12011;47.422;15.018;2023-02-01T07:55:29;8.20;51.90
23669;DHT22;12011;47.422;15.018;2023-02-01T07:57:59;7.90;53.40
23669;DHT22;12011;47.422;15.018;2023-02-01T08:00:31;7.40;53.90
23669;DHT22;12011;47.422;15.018;2023-02-01T08:03:13;7.90;54.20
23669;DHT22;12011;47.422;15.018;2023-02-01T08:05:42;8.40;53.90
23669;DHT22;12011;47.422;15.018;2023-02-01T08:08:12;9.60;51.10
23669;DHT22;12011;47.422;15.018;2023-02-01T08:10:41;9.30;49.50
23669;DHT22;12011;47.422;15.018;2023-02-01T08:13:11;8.70;51.10
23669;DHT22;12011;47.422;15.018;2023-02-01T08:15:43;9.00;51.00
23669;DHT22;12011;47.422;15.018;2023-02-01T08:18:12;9.50;51.00
23669;DHT22;12011;47.422;15.018;2023-02-01T08:20:42;10.50;47.30
23669;DHT22;12011;47.422;15.018;2023-02-01T08:23:12;10.80;46.70
23669;DHT22;12011;47.422;15.018;2023-02-01T08:25:41;11.90;44.20
23669;DHT22;12011;47.422;15.018;2023-02-01T08:28:11;12.30;41.50
23669;DHT22;12011;47.422;15.018;2023-02-01T08:30:43;13.30;40.70
23669;DHT22;12011;47.422;15.018;2023-02-01T08:33:13;13.50;39.30
23669;DHT22;12011;47.422;15.018;2023-02-01T08:35:42;13.00;39.30
23669;DHT22;12011;47.422;15.018;2023-02-01T08:38:12;13.30;38.60
23669;DHT22;12011;47.422;15.018;2023-02-01T08:40:42;13.50;39.00
23669;DHT22;12011;47.422;15.018;2023-02-01T08:43:12;14.30;38.00
23669;DHT22;12011;47.422;15.018;2023-02-01T08:45:44;14.90;36.30
23669;DHT22;12011;47.422;15.018;2023-02-01T08:48:14;15.70;34.80
23669;DHT22;12011;47.422;15.018;2023-02-01T08:50:43;15.20;33.50
23669;DHT22;12011;47.422;15.018;2023-02-01T08:53:13;16.50;33.30
23669;DHT22;12011;47.422;15.018;2023-02-01T08:55:42;17.50;32.00
23669;DHT22;12011;47.422;15.018;2023-02-01T08:58:12;15.90;30.70
23669;DHT22;12011;47.422;15.018;2023-02-01T09:00:45;16.20;30.50
23669;DHT22;12011;47.422;15.018;2023-02-01T09:03:16;17.00;31.10
23669;DHT22;12011;47.422;15.018;2023-02-01T09:05:46;17.90;30.50
23669;DHT22;12011;47.422;15.018;2023-02-01T09:08:16;18.00;29.40
23669;DHT22;12011;47.422;15.018;2023-02-01T09:10:46;18.00;28.60
23669;DHT22;12011;47.422;15.018;2023-02-01T09:13:17;16.60;30.30
23669;DHT22;12011;47.422;15.018;2023-02-01T09:15:53;18.00;29.80
23669;DHT22;12011;47.422;15.018;2023-02-01T09:18:23;17.80;29.50
23669;DHT22;12011;47.422;15.018;2023-02-01T09:20:52;18.10;28.60
23669;DHT22;12011;47.422;15.018;2023-02-01T09:23:22;19.50;28.10
23669;DHT22;12011;47.422;15.018;2023-02-01T09:25:51;18.80;27.60
23669;DHT22;12011;47.422;15.018;2023-02-01T09:28:21;19.30;27.80
23669;DHT22;12011;47.422;15.018;2023-02-01T09:30:55;19.70;27.20
23669;DHT22;12011;47.422;15.018;2023-02-01T09:33:26;19.20;26.50
23669;DHT22;12011;47.422;15.018;2023-02-01T09:35:56;18.10;27.90
23669;DHT22;12011;47.422;15.018;2023-02-01T09:38:26;17.80;28.80
23669;DHT22;12011;47.422;15.018;2023-02-01T09:40:57;17.30;28.80
23669;DHT22;12011;47.422;15.018;2023-02-01T09:43:38;15.70;29.40
23669;DHT22;12011;47.422;15.018;2023-02-01T09:46:21;16.00;30.00
23669;DHT22;12011;47.422;15.018;2023-02-01T09:48:54;15.40;30.50
23669;DHT22;12011;47.422;15.018;2023-02-01T09:51:32;14.50;31.30
23669;DHT22;12011;47.422;15.018;2023-02-01T09:54:09;13.20;33.80
23669;DHT22;12011;47.422;15.018;2023-02-01T09:56:46;11.80;35.90
23669;DHT22;12011;47.422;15.018;2023-02-01T09:59:29;11.90;37.50
23669;DHT22;12011;47.422;15.018;2023-02-01T10:02:14;11.40;37.50
23669;DHT22;12011;47.422;15.018;2023-02-01T10:04:47;11.30;38.60
23669;DHT22;12011;47.422;15.018;2023-02-01T10:07:29;11.20;39.60
23669;DHT22;12011;47.422;15.018;2023-02-01T10:10:11;11.00;39.30
23669;DHT22;12011;47.422;15.018;2023-02-01T10:13:13;10.80;41.70
23669;DHT22;12011;47.422;15.018;2023-02-01T10:15:58;9.90;42.60
23669;DHT22;12011;47.422;15.018;2023-02-01T10:19:00;9.60;43.60
23669;DHT22;12011;47.422;15.018;2023-02-01T10:21:51;9.70;43.70
23669;DHT22;12011;47.422;15.018;2023-02-01T10:24:36;8.70;47.20
23669;DHT22;12011;47.422;15.018;2023-02-01T10:27:14;8.40;49.30
23669;DHT22;12011;47.422;15.018;2023-02-01T10:29:51;8.30;49.30
23669;DHT22;12011;47.422;15.018;2023-02-01T10:32:29;8.60;49.50
23669;DHT22;12011;47.422;15.018;2023-02-01T10:35:12;8.80;48.80
23669;DHT22;12011;47.422;15.018;2023-02-01T10:37:45;9.30;48.20
23669;DHT22;12011;47.422;15.018;2023-02-01T10:40:20;9.80;45.50
23669;DHT22;12011;47.422;15.018;2023-02-01T10:42:54;10.70;43.30
23669;DHT22;12011;47.422;15.018;2023-02-01T10:45:29;11.30;41.80
23669;DHT22;12011;47.422;15.018;2023-02-01T10:48:02;11.90;39.80
23669;DHT22;12011;47.422;15.018;2023-02-01T10:50:41;12.50;37.80
23669;DHT22;12011;47.422;15.018;2023-02-01T10:53:20;13.60;36.80
23669;DHT22;12011;47.422;15.018;2023-02-01T10:55:54;13.70;35.50
23669;DHT22;12011;47.422;15.018;2023-02-01T10:58:28;13.50;34.60
23669;DHT22;12011;47.422;15.018;2023-02-01T11:01:02;13.30;32.80
23669;DHT22;12011;47.422;15.018;2023-02-01T11:03:36;13.30;32.70
23669;DHT22;12011;47.422;15.018;2023-02-01T11:06:25;14.40;32.20
23669;DHT22;12011;47.422;15.018;2023-02-01T11:09:00;14.20;31.90
23669;DHT22;12011;47.422;15.018;2023-02-01T11:11:55;14.00;31.00
23669;DHT22;12011;47.422;15.018;2023-02-01T11:14:39;13.80;31.50
23669;DHT22;12011;47.422;15.018;2023-02-01T11:17:26;13.90;31.30
23669;DHT22;12011;47.422;15.018;2023-02-01T11:19:58;13.70;31.40
23669;DHT22;12011;47.422;15.018;2023-02-01T11:22:31;13.70;30.30
23669;DHT22;12011;47.422;15.018;2023-02-01T11:25:09;14.40;30.80
23669;DHT22;12011;47.422;15.018;2023-02-01T11:27:40;13.80;29.40
23669;DHT22;12011;47.422;15.018;2023-02-01T11:30:17;14.00;29.90
23669;DHT22;12011;47.422;15.018;2023-02-01T11:32:49;14.20;30.20
23669;DHT22;12011;47.422;15.018;2023-02-01T11:35:21;14.60;30.10
23669;DHT22;12011;47.422;15.018;2023-02-01T11:37:57;14.10;30.10
23669;DHT22;12011;47.422;15.018;2023-02-01T11:40:35;14.10;30.60
23669;DHT22;12011;47.422;15.018;2023-02-01T11:43:12;12.90;31.80
23669;DHT22;12011;47.422;15.018;2023-02-01T11:45:54;11.70;32.80
23669;DHT22;12011;47.422;15.018;2023-02-01T11:48:27;11.30;36.00
23669;DHT22;12011;47.422;15.018;2023-02-01T11:51:14;11.30;36.80
23669;DHT22;12011;47.422;15.018;2023-02-01T11:54:27;10.30;37.90
23669;DHT22;12011;47.422;15.018;2023-02-01T11:57:23;10.40;39.40
23669;DHT22;12011;47.422;15.018;2023-02-01T12:00:32;11.20;37.90
23669;DHT22;12011;47.422;15.018;2023-02-01T12:06:48;9.50;42.50
23669;DHT22;12011;47.422;15.018;2023-02-01T12:09:42;10.60;42.40
23669;DHT22;12011;47.422;15.018;2023-02-01T12:12:24;10.60;41.00
23669;DHT22;12011;47.422;15.018;2023-02-01T12:15:22;10.40;42.20
23669;DHT22;12011;47.422;15.018;2023-02-01T12:21:31;9.90;44.80
23669;DHT22;12011;47.422;15.018;2023-02-01T12:24:35;9.40;45.50
23669;DHT22;12011;47.422;15.018;2023-02-01T12:27:29;8.60;46.80
23669;DHT22;12011;47.422;15.018;2023-02-01T12:33:35;8.70;48.60
23669;DHT22;12011;47.422;15.018;2023-02-01T12:36:21;8.30;49.30
23669;DHT22;12011;47.422;15.018;2023-02-01T12:39:01;8.30;50.20
23669;DHT22;12011;47.422;15.018;2023-02-01T12:41:55;8.40;50.60
23669;DHT22;12011;47.422;15.018;2023-02-01T12:44:40;7.70;54.00
23669;DHT22;12011;47.422;15.018;2023-02-01T12:47:20;7.30;57.70
23669;DHT22;12011;47.422;15.018;2023-02-01T12:49:59;6.50;64.40
23669;DHT22;12011;47.422;15.018;2023-02-01T12:52:37;6.00;74.70
23669;DHT22;12011;47.422;15.018;2023-02-01T12:55:20;5.70;80.20
23669;DHT22;12011;47.422;15.018;2023-02-01T12:58:02;5.60;86.30
23669;DHT22;12011;47.422;15.018;2023-02-01T13:00:43;5.50;86.80
23669;DHT22;12011;47.422;15.018;2023-02-01T13:03:28;5.20;91.60
23669;DHT22;12011;47.422;15.018;2023-02-01T13:06:10;5.30;92.50
23669;DHT22;12011;47.422;15.018;2023-02-01T13:08:48;5.10;93.50
23669;DHT22;12011;47.422;15.018;2023-02-01T13:11:26;4.80;96.00
23669;DHT22;12011;47.422;15.018;2023-02-01T13:14:07;4.60;96.10
23669;DHT22;12011;47.422;15.018;2023-02-01T13:16:45;4.60;97.80
23669;DHT22;12011;47.422;15.018;2023-02-01T13:19:20;4.80;96.70
23669;DHT22;12011;47.422;15.018;2023-02-01T13:21:58;4.80;95.50
23669;DHT22;12011;47.422;15.018;2023-02-01T13:24:40;5.10;95.30
23669;DHT22;12011;47.422;15.018;2023-02-01T13:27:13;5.30;94.20
23669;DHT22;12011;47.422;15.018;2023-02-01T13:29:53;5.40;93.10
23669;DHT22;12011;47.422;15.018;2023-02-01T13:33:05;5.40;92.30
23669;DHT22;12011;47.422;15.018;2023-02-01T13:36:10;5.20;94.30
23669;DHT22;12011;47.422;15.018;2023-02-01T13:39:42;4.90;96.10
23669;DHT22;12011;47.422;15.018;2023-02-01T13:42:20;4.90;97.50
23669;DHT22;12011;47.422;15.018;2023-02-01T13:44:58;4.40;98.40
23669;DHT22;12011;47.422;15.018;2023-02-01T13:47:33;4.40;99.10
23669;DHT22;12011;47.422;15.018;2023-02-01T13:50:19;4.50;99.90
23669;DHT22;12011;47.422;15.018;2023-02-01T13:52:55;4.20;99.90
23669;DHT22;12011;47.422;15.018;2023-02-01T13:55:32;4.20;99.90
23669;DHT22;12011;47.422;15.018;2023-02-01T13:58:15;3.90;99.90
23669;DHT22;12011;47.422;15.018;2023-02-01T14:00:51;3.90;99.90
23669;DHT22;12011;47.422;15.018;2023-02-01T14:04:01;4.00;99.90
23669;DHT22;12011;47.422;15.018;2023-02-01T14:06:46;4.10;99.90
23669;DHT22;12011;47.422;15.018;2023-02-01T14:09:19;4.20;97.60
23669;DHT22;12011;47.422;15.018;2023-02-01T14:12:43;4.40;98.50
23669;DHT22;12011;47.422;15.018;2023-02-01T14:15:23;4.40;98.20
23669;DHT22;12011;47.422;15.018;2023-02-01T14:17:57;4.30;98.30
23669;DHT22;12011;47.422;15.018;2023-02-01T14:20:46;4.20;99.80
23669;DHT22;12011;47.422;15.018;2023-02-01T14:23:28;4.20;99.60
23669;DHT22;12011;47.422;15.018;2023-02-01T14:26:10;4.10;99.20
23669;DHT22;12011;47.422;15.018;2023-02-01T14:29:02;4.00;99.50
23669;DHT22;12011;47.422;15.018;2023-02-01T14:31:52;4.00;99.90
23669;DHT22;12011;47.422;15.018;2023-02-01T14:34:34;4.10;99.90
23669;DHT22;12011;47.422;15.018;2023-02-01T14:37:13;4.20;99.30
23669;DHT22;12011;47.422;15.018;2023-02-01T14:39:58;4.20;98.90
23669;DHT22;12011;47.422;15.018;2023-02-01T14:42:42;4.20;99.00
23669;DHT22;12011;47.422;15.018;2023-02-01T14:48:45;4.10;99.40
23669;DHT22;12011;47.422;15.018;2023-02-01T14:51:19;3.90;99.80
23669;DHT22;12011;47.422;15.018;2023-02-01T14:53:50;3.80;99.90
23669;DHT22;12011;47.422;15.018;2023-02-01T14:56:21;3.70;99.90
23669;DHT22;12011;47.422;15.018;2023-02-01T14:58:57;3.60;99.90
23669;DHT22;12011;47.422;15.018;2023-02-01T15:01:32;3.70;99.00
23669;DHT22;12011;47.422;15.018;2023-02-01T15:04:06;3.70;97.70
23669;DHT22;12011;47.422;15.018;2023-02-01T15:06:44;3.70;97.90
23669;DHT22;12011;47.422;15.018;2023-02-01T15:09:20;3.70;95.60
23669;DHT22;12011;47.422;15.018;2023-02-01T15:12:00;3.70;95.60
23669;DHT22;12011;47.422;15.018;2023-02-01T15:14:35;3.60;96.50
23669;DHT22;12011;47.422;15.018;2023-02-01T15:17:20;3.60;97.60
23669;DHT22;12011;47.422;15.018;2023-02-01T15:19:54;3.60;95.70
23669;DHT22;12011;47.422;15.018;2023-02-01T15:22:28;3.50;96.40
23669;DHT22;12011;47.422;15.018;2023-02-01T15:25:00;3.50;96.80
23669;DHT22;12011;47.422;15.018;2023-02-01T15:27:31;3.50;96.40
23669;DHT22;12011;47.422;15.018;2023-02-01T15:30:12;3.40;97.40
23669;DHT22;12011;47.422;15.018;2023-02-01T15:32:46;3.30;99.90
23669;DHT22;12011;47.422;15.018;2023-02-01T15:35:40;3.30;96.50
23669;DHT22;12011;47.422;15.018;2023-02-01T15:38:34;3.30;97.00
23669;DHT22;12011;47.422;15.018;2023-02-01T15:41:08;3.30;94.70
23669;DHT22;12011;47.422;15.018;2023-02-01T15:43:44;3.30;94.60
23669;DHT22;12011;47.422;15.018;2023-02-01T15:46:22;3.40;94.90
23669;DHT22;12011;47.422;15.018;2023-02-01T15:48:54;3.40;93.70
23669;DHT22;12011;47.422;15.018;2023-02-01T15:51:27;3.40;93.90
23669;DHT22;12011;47.422;15.018;2023-02-01T15:54:04;3.40;94.10
23669;DHT22;12011;47.422;15.018;2023-02-01T15:56:37;3.30;93.40
23669;DHT22;12011;47.422;15.018;2023-02-01T15:59:16;3.30;93.30
23669;DHT22;12011;47.422;15.018;2023-02-01T16:01:48;3.50;93.20
23669;DHT22;12011;47.422;15.018;2023-02-01T16:04:20;3.20;93.80
23669;DHT22;12011;47.422;15.018;2023-02-01T16:06:52;3.20;94.10
23669;DHT22;12011;47.422;15.018;2023-02-01T16:09:37;3.20;94.80
23669;DHT22;12011;47.422;15.018;2023-02-01T16:12:28;3.20;95.30
23669;DHT22;12011;47.422;15.018;2023-02-01T16:15:01;3.10;96.40
23669;DHT22;12011;47.422;15.018;2023-02-01T16:17:31;3.10;93.70
23669;DHT22;12011;47.422;15.018;2023-02-01T16:20:00;3.00;95.50
23669;DHT22;12011;47.422;15.018;2023-02-01T16:22:30;3.10;93.80
23669;DHT22;12011;47.422;15.018;2023-02-01T16:25:03;3.10;94.00
23669;DHT22;12011;47.422;15.018;2023-02-01T16:27:33;3.00;95.00
23669;DHT22;12011;47.422;15.018;2023-02-01T16:30:02;3.00;94.30
23669;DHT22;12011;47.422;15.018;2023-02-01T16:32:35;3.00;95.00
23669;DHT22;12011;47.422;15.018;2023-02-01T16:35:08;2.90;95.80
23669;DHT22;12011;47.422;15.018;2023-02-01T16:37:45;3.10;92.50
23669;DHT22;12011;47.422;15.018;2023-02-01T16:40:19;3.00;94.30
23669;DHT22;12011;47.422;15.018;2023-02-01T16:42:51;3.00;94.60
23669;DHT22;12011;47.422;15.018;2023-02-01T16:45:22;2.90;95.30
23669;DHT22;12011;47.422;15.018;2023-02-01T16:47:54;2.80;98.60